Time;durP1;ratioP1;P1;durP2;ratioP2;P2;SDS_P1;SDS_P2;PMS_P1;PMS_P2;Temp;Humidity;BMP_temperature;BMP_pressure;BME280_temperature;BME280_humidity;BME280_pressure;Samples;Min_cycle;Max_cycle;Signal;HPM_P1;HPM_P2
2024/03/01 00:02:21;;;;;;;5.22;1.83;;;21.90;37.40;;;;;;5132876;28;20583;-62
2024/03/01 00:04:48;;;;;;;3.40;1.75;;;21.90;37.40;;;;;;5132477;28;20213;-65
2024/03/01 00:07:15;;;;;;;4.55;1.50;;;21.90;37.30;;;;;;5130825;28;20261;-65
2024/03/01 00:09:43;;;;;;;2.72;1.23;;;22.00;37.30;;;;;;5132762;28;20276;-62
2024/03/01 00:12:11;;;;;;;3.58;1.70;;;22.00;37.30;;;;;;5130628;28;20291;-62
2024/03/01 00:14:37;;;;;;;4.40;1.45;;;22.00;37.20;;;;;;5132269;28;20311;-63
2024/03/01 00:17:05;;;;;;;3.55;1.48;;;22.00;37.10;;;;;;5132522;28;20212;-62
2024/03/01 00:19:32;;;;;;;4.20;1.50;;;21.90;37.10;;;;;;5132342;28;20243;-65
2024/03/01 00:21:58;;;;;;;2.45;1.30;;;22.00;37.00;;;;;;5132664;28;20223;-65
2024/03/01 00:24:25;;;;;;;4.03;1.27;;;22.00;37.00;;;;;;5130781;28;20271;-62
2024/03/01 00:26:53;;;;;;;5.95;1.42;;;22.00;37.00;;;;;;5132283;28;20299;-65
2024/03/01 00:29:20;;;;;;;3.60;1.50;;;22.00;36.90;;;;;;5131986;27;20280;-63
2024/03/01 00:31:47;;;;;;;2.55;1.30;;;22.00;36.80;;;;;;5136251;27;20218;-65
2024/03/01 00:34:14;;;;;;;4.07;1.77;;;22.00;36.80;;;;;;5135698;27;20185;-64
2024/03/01 00:36:41;;;;;;;3.65;1.40;;;22.00;36.80;;;;;;5136128;27;20298;-63
2024/03/01 00:39:08;;;;;;;3.92;1.63;;;22.00;36.80;;;;;;5135162;27;20185;-63
2024/03/01 00:41:35;;;;;;;3.25;1.35;;;22.00;36.80;;;;;;5135130;27;20555;-65
2024/03/01 00:44:04;;;;;;;4.75;1.58;;;22.00;36.80;;;;;;5135914;27;20224;-63
2024/03/01 00:46:31;;;;;;;3.63;1.60;;;22.00;36.80;;;;;;5134496;27;20303;-65
2024/03/01 00:48:58;;;;;;;3.40;1.42;;;21.90;36.70;;;;;;5135359;27;20558;-65
2024/03/01 00:51:25;;;;;;;5.72;1.83;;;22.00;36.80;;;;;;5135809;27;20299;-64
2024/03/01 00:53:51;;;;;;;4.00;1.67;;;21.90;36.70;;;;;;5133869;27;20188;-62
2024/03/01 00:56:17;;;;;;;2.97;1.35;;;21.90;36.70;;;;;;5135274;27;20252;-66
2024/03/01 00:58:45;;;;;;;2.08;1.17;;;21.90;36.70;;;;;;5133878;27;20193;-65
2024/03/01 01:01:13;;;;;;;2.20;1.10;;;21.90;36.70;;;;;;5135560;27;20381;-62
2024/03/01 01:03:40;;;;;;;4.97;1.55;;;21.90;36.70;;;;;;5134465;27;20192;-63
2024/03/01 01:06:07;;;;;;;2.95;1.60;;;21.90;36.60;;;;;;5129526;27;20221;-64
2024/03/01 01:08:34;;;;;;;3.72;1.30;;;21.90;36.60;;;;;;5124619;27;20269;-65
2024/03/01 01:11:01;;;;;;;3.50;1.40;;;21.90;37.20;;;;;;5135013;27;20212;-63
2024/03/01 01:13:28;;;;;;;3.20;1.45;;;21.90;36.60;;;;;;5134888;27;20195;-62
2024/03/01 01:15:55;;;;;;;2.70;1.30;;;21.90;36.50;;;;;;5135160;27;20212;-62
2024/03/01 01:18:23;;;;;;;3.05;1.27;;;21.90;36.40;;;;;;5134227;27;20283;-65
2024/03/01 01:20:50;;;;;;;4.90;1.70;;;21.90;36.30;;;;;;5134108;27;20231;-64
2024/03/01 01:23:17;;;;;;;6.63;1.70;;;21.90;36.30;;;;;;5135002;27;20572;-65
2024/03/01 01:25:45;;;;;;;3.55;1.35;;;21.90;36.30;;;;;;5134569;27;20654;-64
2024/03/01 01:28:12;;;;;;;6.50;1.55;;;21.90;36.30;;;;;;5133146;27;20669;-62
2024/03/01 01:30:39;;;;;;;4.75;1.75;;;21.90;36.20;;;;;;5134595;27;20276;-64
2024/03/01 01:33:07;;;;;;;4.22;1.20;;;21.90;36.20;;;;;;5134513;27;20271;-64
2024/03/01 01:35:35;;;;;;;2.33;1.40;;;21.90;36.10;;;;;;5134636;27;20193;-62
2024/03/01 01:38:02;;;;;;;4.82;1.50;;;22.00;36.20;;;;;;5134998;27;20188;-63
2024/03/01 01:40:31;;;;;;;4.80;1.42;;;22.00;36.10;;;;;;5132291;27;20216;-64
2024/03/01 01:42:58;;;;;;;3.85;1.50;;;21.90;36.10;;;;;;5134293;27;20216;-62
2024/03/01 01:45:26;;;;;;;4.30;1.50;;;21.90;36.00;;;;;;5134585;27;20181;-61
2024/03/01 01:47:53;;;;;;;3.17;1.40;;;21.90;36.00;;;;;;5132907;27;20244;-65
2024/03/01 01:50:21;;;;;;;3.13;1.20;;;21.90;36.10;;;;;;5134417;27;20202;-65
2024/03/01 01:52:49;;;;;;;2.95;1.38;;;21.90;36.00;;;;;;5132919;27;20209;-63
2024/03/01 01:55:18;;;;;;;2.95;1.20;;;21.90;36.00;;;;;;5134008;27;20207;-65
2024/03/01 01:57:47;;;;;;;4.68;1.40;;;21.90;36.00;;;;;;5134380;27;20265;-64
2024/03/01 02:00:15;;;;;;;5.00;1.30;;;21.90;36.00;;;;;;5134205;27;20312;-65
2024/03/01 02:02:42;;;;;;;2.63;1.15;;;21.80;36.00;;;;;;5132096;27;20220;-64
2024/03/01 02:05:10;;;;;;;6.95;1.60;;;21.80;36.00;;;;;;5134430;27;20249;-64
2024/03/01 02:07:37;;;;;;;3.22;1.30;;;21.80;36.00;;;;;;5134340;27;20212;-62
2024/03/01 02:10:16;;;;;;;4.43;1.27;;;21.80;36.00;;;;;;5133805;27;20224;-64
2024/03/01 02:12:53;;;;;;;3.85;1.40;;;21.80;36.00;;;;;;5133905;27;20212;-65
2024/03/01 02:15:20;;;;;;;3.88;1.67;;;21.80;36.00;;;;;;5134076;27;20280;-63
2024/03/01 02:17:47;;;;;;;4.10;1.40;;;21.80;35.90;;;;;;5133998;27;20228;-64
2024/03/01 02:20:16;;;;;;;2.90;0.90;;;21.80;35.90;;;;;;5133742;27;20709;-63
2024/03/01 02:22:49;;;;;;;5.18;1.30;;;21.80;35.90;;;;;;5132277;27;20208;-64
2024/03/01 02:25:18;;;;;;;4.00;1.20;;;21.80;35.90;;;;;;5133704;27;20185;-63
2024/03/01 02:27:46;;;;;;;6.05;1.50;;;21.80;35.90;;;;;;5132250;27;20264;-62
2024/03/01 02:30:14;;;;;;;4.80;1.40;;;21.80;35.80;;;;;;5134014;27;20288;-65
2024/03/01 02:32:41;;;;;;;3.15;1.20;;;21.80;35.80;;;;;;5131596;27;20589;-65
2024/03/01 02:35:08;;;;;;;6.85;1.40;;;21.80;35.80;;;;;;5133187;27;20275;-63
2024/03/01 02:37:35;;;;;;;4.35;1.55;;;21.90;35.80;;;;;;5133361;27;20260;-64
2024/03/01 02:40:04;;;;;;;4.63;1.50;;;21.80;35.60;;;;;;5133491;27;20303;-64
2024/03/01 02:42:33;;;;;;;2.97;1.20;;;21.80;35.60;;;;;;5132958;27;20246;-63
2024/03/01 02:45:02;;;;;;;3.20;1.30;;;21.80;35.60;;;;;;5133112;27;20272;-65
2024/03/01 02:47:30;;;;;;;4.13;1.27;;;21.80;35.60;;;;;;5133499;27;20679;-62
2024/03/01 02:49:57;;;;;;;3.08;1.33;;;21.80;35.60;;;;;;5133691;27;20288;-65
2024/03/01 02:52:24;;;;;;;4.05;1.40;;;21.80;35.60;;;;;;5131210;27;20658;-64
2024/03/01 02:54:51;;;;;;;5.10;1.50;;;21.80;35.60;;;;;;5133129;27;20279;-64
2024/03/01 02:57:18;;;;;;;6.38;1.70;;;21.80;35.60;;;;;;5133380;27;20238;-63
2024/03/01 02:59:46;;;;;;;4.13;1.23;;;21.80;35.50;;;;;;5132076;27;20194;-64
2024/03/01 03:02:13;;;;;;;5.30;1.70;;;21.80;35.50;;;;;;5133150;27;20231;-64
2024/03/01 03:04:40;;;;;;;4.80;1.40;;;21.80;35.50;;;;;;5133333;27;20181;-65
2024/03/01 03:07:07;;;;;;;6.90;1.48;;;21.80;35.50;;;;;;5133297;27;20224;-63
2024/03/01 03:09:34;;;;;;;4.00;1.23;;;21.80;35.50;;;;;;5133041;27;20196;-63
2024/03/01 03:12:01;;;;;;;7.50;1.25;;;21.80;35.50;;;;;;5133218;27;20421;-62
2024/03/01 03:14:28;;;;;;;5.65;1.50;;;21.80;35.50;;;;;;5132819;27;20224;-63
2024/03/01 03:16:56;;;;;;;4.40;1.38;;;21.80;35.50;;;;;;5133049;27;20307;-65
2024/03/01 03:19:24;;;;;;;4.47;1.52;;;21.80;35.50;;;;;;5133216;28;20186;-63
2024/03/01 03:21:51;;;;;;;3.90;1.20;;;21.80;35.50;;;;;;5131647;28;20232;-65
2024/03/01 03:24:19;;;;;;;5.78;1.85;;;21.80;35.50;;;;;;5132130;28;20188;-64
2024/03/01 03:26:45;;;;;;;4.03;1.48;;;21.80;35.50;;;;;;5133015;28;20218;-63
2024/03/01 03:29:12;;;;;;;7.50;1.73;;;21.80;35.40;;;;;;5133046;28;20181;-64
2024/03/01 03:31:41;;;;;;;3.75;1.50;;;21.80;35.40;;;;;;5132738;28;20295;-64
2024/03/01 03:34:09;;;;;;;4.68;1.67;;;21.80;35.40;;;;;;5132660;28;20633;-66
2024/03/01 03:36:36;;;;;;;5.20;1.33;;;21.80;35.40;;;;;;5130694;28;20670;-65
2024/03/01 03:39:06;;;;;;;6.90;1.70;;;21.80;35.40;;;;;;5132628;28;20207;-64
2024/03/01 03:41:34;;;;;;;5.30;1.42;;;21.80;35.30;;;;;;5133058;28;20260;-64
2024/03/01 03:44:01;;;;;;;4.75;1.80;;;21.80;35.30;;;;;;5131313;28;20195;-64
2024/03/01 03:46:29;;;;;;;5.78;1.85;;;21.80;35.20;;;;;;5132659;28;20216;-62
2024/03/01 03:48:56;;;;;;;5.35;1.83;;;21.80;35.20;;;;;;5132845;28;20187;-64
2024/03/01 03:51:28;;;;;;;6.50;1.80;;;21.70;35.10;;;;;;5132739;28;20218;-65
2024/03/01 03:53:56;;;;;;;4.45;1.40;;;21.70;35.10;;;;;;5132527;28;20280;-64
2024/03/01 03:56:23;;;;;;;4.03;1.50;;;21.70;35.10;;;;;;5132766;28;20212;-65
2024/03/01 03:58:50;;;;;;;5.80;1.85;;;21.70;35.10;;;;;;5132808;28;20271;-65
2024/03/01 04:01:18;;;;;;;5.10;1.40;;;21.70;35.10;;;;;;5130689;28;20235;-64
2024/03/01 04:03:45;;;;;;;3.88;1.65;;;21.70;35.10;;;;;;5131037;27;20271;-64
2024/03/01 04:06:12;;;;;;;4.95;1.50;;;21.70;35.10;;;;;;5134536;27;20222;-63
2024/03/01 04:08:40;;;;;;;4.40;1.63;;;21.70;35.70;;;;;;5136435;27;20185;-65
2024/03/01 04:11:08;;;;;;;6.35;1.80;;;21.70;35.00;;;;;;5136059;27;20276;-65
2024/03/01 04:13:35;;;;;;;4.25;1.35;;;21.80;35.20;;;;;;5136621;27;20185;-65
2024/03/01 04:16:02;;;;;;;4.53;1.40;;;21.70;35.00;;;;;;5135735;27;20650;-64
2024/03/01 04:18:29;;;;;;;6.15;1.70;;;21.70;35.00;;;;;;5134758;27;20745;-65
2024/03/01 04:20:57;;;;;;;5.63;1.50;;;21.70;35.00;;;;;;5136232;27;20220;-63
2024/03/01 04:23:23;;;;;;;3.35;1.35;;;21.70;35.00;;;;;;5136205;27;20216;-65
2024/03/01 04:25:53;;;;;;;4.88;1.30;;;21.70;35.70;;;;;;5134276;27;20181;-65
2024/03/01 04:28:20;;;;;;;3.80;1.65;;;21.70;35.10;;;;;;5136478;27;20288;-66
2024/03/01 04:30:48;;;;;;;5.88;1.80;;;21.70;35.00;;;;;;5135870;27;20650;-65
2024/03/01 04:33:15;;;;;;;4.50;1.40;;;21.70;35.10;;;;;;5134367;27;20208;-64
2024/03/01 04:35:42;;;;;;;3.95;1.20;;;21.70;35.00;;;;;;5135603;27;20280;-66
2024/03/01 04:38:10;;;;;;;4.80;1.55;;;21.70;35.00;;;;;;5136085;27;20303;-65
2024/03/01 04:40:38;;;;;;;5.53;1.75;;;21.70;35.00;;;;;;5134392;27;20242;-65
2024/03/01 04:43:07;;;;;;;4.55;1.55;;;21.70;35.00;;;;;;5136141;27;20220;-67
2024/03/01 04:45:34;;;;;;;4.45;1.40;;;21.70;35.00;;;;;;5135802;27;20195;-64
2024/03/01 04:48:01;;;;;;;3.80;1.50;;;21.70;35.00;;;;;;5134249;27;20219;-65
2024/03/01 04:50:28;;;;;;;4.72;1.83;;;21.70;35.00;;;;;;5134034;27;20207;-65
2024/03/01 04:52:55;;;;;;;5.20;1.55;;;21.70;35.00;;;;;;5135776;27;20295;-65
2024/03/01 04:55:22;;;;;;;4.18;1.60;;;21.70;35.00;;;;;;5135305;27;20649;-65
2024/03/01 04:57:49;;;;;;;6.82;1.70;;;21.70;35.00;;;;;;5135651;27;20574;-63
2024/03/01 05:00:21;;;;;;;4.65;1.45;;;21.80;35.00;;;;;;5135270;27;20185;-62
2024/03/01 05:02:48;;;;;;;5.78;1.40;;;21.80;34.90;;;;;;5135878;27;20285;-63
2024/03/01 05:05:18;;;;;;;4.55;1.52;;;21.80;34.90;;;;;;5135637;27;20272;-64
2024/03/01 05:07:48;;;;;;;6.65;1.58;;;21.70;34.90;;;;;;5135480;27;20247;-65
2024/03/01 05:10:21;;;;;;;3.85;1.30;;;21.70;34.80;;;;;;5135122;27;20188;-64
2024/03/01 05:12:48;;;;;;;4.57;1.70;;;21.70;34.90;;;;;;5133520;27;20712;-65
2024/03/01 05:15:17;;;;;;;3.85;1.45;;;21.70;34.90;;;;;;5134451;27;20220;-65
2024/03/01 05:17:46;;;;;;;4.90;1.30;;;21.70;34.80;;;;;;5135594;27;20302;-62
2024/03/01 05:20:14;;;;;;;3.15;1.40;;;21.70;34.90;;;;;;5133427;27;20669;-64
2024/03/01 05:22:43;;;;;;;5.20;1.45;;;21.70;34.90;;;;;;5135054;27;20311;-64
2024/03/01 05:25:17;;;;;;;4.07;1.45;;;21.70;34.90;;;;;;5134882;27;20668;-65
2024/03/01 05:27:46;;;;;;;3.67;1.30;;;21.70;34.90;;;;;;5135318;27;20247;-65
2024/03/01 05:30:16;;;;;;;4.45;1.40;;;21.70;34.90;;;;;;5132965;27;20279;-64
2024/03/01 05:32:46;;;;;;;4.03;1.27;;;21.70;35.00;;;;;;5135279;27;20217;-65
2024/03/01 05:35:14;;;;;;;4.57;1.58;;;21.70;35.00;;;;;;5134575;27;20736;-65
2024/03/01 05:37:41;;;;;;;3.10;1.35;;;21.70;35.00;;;;;;5134849;27;20599;-64
2024/03/01 05:40:10;;;;;;;5.70;1.35;;;21.60;35.00;;;;;;5132771;27;20745;-66
2024/03/01 05:42:39;;;;;;;3.33;1.00;;;21.70;35.00;;;;;;5135019;27;20232;-65
2024/03/01 05:45:07;;;;;;;3.47;1.45;;;21.70;35.10;;;;;;5134248;27;20196;-65
2024/03/01 05:47:35;;;;;;;3.03;1.25;;;21.70;35.10;;;;;;5132886;27;20216;-63
2024/03/01 05:50:04;;;;;;;4.43;1.30;;;21.60;35.00;;;;;;5134736;27;20189;-63
2024/03/01 05:52:32;;;;;;;5.72;1.15;;;21.60;35.00;;;;;;5134353;27;20223;-64
2024/03/01 05:54:59;;;;;;;3.92;1.25;;;21.60;35.00;;;;;;5134534;27;20275;-65
2024/03/01 05:57:26;;;;;;;3.30;1.23;;;21.70;35.20;;;;;;5132630;27;20212;-65
2024/03/01 05:59:53;;;;;;;3.97;1.40;;;21.70;35.20;;;;;;5134086;27;20660;-64
2024/03/01 06:02:22;;;;;;;2.80;1.10;;;21.70;35.20;;;;;;5134543;27;20254;-65
2024/03/01 06:04:49;;;;;;;4.80;1.50;;;21.60;35.10;;;;;;5132516;27;20199;-63
2024/03/01 06:07:18;;;;;;;3.20;1.25;;;21.60;35.20;;;;;;5134298;27;20244;-64
2024/03/01 06:09:44;;;;;;;5.15;1.67;;;21.60;35.20;;;;;;5132139;27;20191;-62
2024/03/01 06:12:11;;;;;;;6.45;1.95;;;21.60;35.20;;;;;;5134285;27;20299;-64
2024/03/01 06:14:38;;;;;;;5.20;1.48;;;21.70;35.30;;;;;;5133615;27;20228;-63
2024/03/01 06:17:05;;;;;;;5.53;1.30;;;21.70;35.20;;;;;;5134303;27;20247;-64
2024/03/01 06:19:32;;;;;;;4.63;1.50;;;21.70;35.30;;;;;;5133963;27;20180;-65
2024/03/01 06:21:59;;;;;;;3.88;1.65;;;21.70;35.30;;;;;;5132028;27;20246;-63
2024/03/01 06:24:28;;;;;;;4.85;1.45;;;21.70;35.30;;;;;;5133929;27;20646;-64
2024/03/01 06:26:55;;;;;;;5.30;1.55;;;21.60;35.20;;;;;;5133546;27;20214;-64
2024/03/01 06:29:22;;;;;;;4.18;1.30;;;21.60;35.30;;;;;;5133412;27;20540;-64
2024/03/01 06:31:50;;;;;;;4.95;1.38;;;21.70;35.30;;;;;;5131995;27;20226;-64
2024/03/01 06:34:17;;;;;;;5.95;1.30;;;21.70;35.40;;;;;;5133533;27;20227;-63
2024/03/01 06:36:44;;;;;;;3.55;1.35;;;21.70;35.40;;;;;;5131665;27;20299;-64
2024/03/01 06:39:11;;;;;;;5.35;1.20;;;21.70;35.40;;;;;;5133809;27;20223;-64
2024/03/01 06:41:39;;;;;;;4.80;1.38;;;21.70;35.30;;;;;;5132658;27;20232;-63
2024/03/01 06:44:06;;;;;;;4.15;1.40;;;21.70;35.30;;;;;;5133589;27;20195;-65
2024/03/01 06:46:33;;;;;;;3.47;1.30;;;21.70;35.40;;;;;;5133543;27;20216;-64
2024/03/01 06:49:01;;;;;;;4.72;1.20;;;21.70;35.30;;;;;;5133722;27;20263;-64
2024/03/01 06:51:29;;;;;;;2.53;1.02;;;21.70;35.30;;;;;;5131445;27;20184;-63
2024/03/01 06:53:56;;;;;;;3.65;1.33;;;21.70;35.40;;;;;;5131954;27;20275;-64
2024/03/01 06:56:23;;;;;;;5.25;1.30;;;21.70;35.30;;;;;;5132953;27;20752;-63
2024/03/01 06:58:51;;;;;;;3.75;1.02;;;21.70;35.30;;;;;;5131558;27;20184;-63
2024/03/01 07:01:18;;;;;;;3.65;1.20;;;21.70;35.30;;;;;;5133213;27;20220;-66
2024/03/01 07:03:45;;;;;;;2.67;1.00;;;21.70;35.30;;;;;;5131647;27;20273;-65
2024/03/01 07:06:12;;;;;;;5.22;1.75;;;21.70;35.40;;;;;;5132770;27;20245;-62
2024/03/01 07:08:40;;;;;;;5.38;1.40;;;21.70;35.30;;;;;;5133357;27;20271;-65
2024/03/01 07:11:07;;;;;;;4.22;1.00;;;21.70;35.30;;;;;;5131181;27;20580;-66
2024/03/01 07:13:34;;;;;;;4.05;1.58;;;21.70;35.30;;;;;;5132577;27;20697;-65
2024/03/01 07:16:02;;;;;;;4.07;1.35;;;21.70;35.30;;;;;;5132127;27;20669;-62
2024/03/01 07:18:29;;;;;;;4.13;1.20;;;21.70;35.30;;;;;;5132260;28;20222;-63
2024/03/01 07:20:56;;;;;;;4.88;1.30;;;21.70;35.30;;;;;;5133061;28;20181;-64
2024/03/01 07:23:23;;;;;;;3.92;1.23;;;21.70;35.30;;;;;;5133265;28;20243;-63
2024/03/01 07:25:50;;;;;;;4.38;1.20;;;21.70;35.30;;;;;;5133006;28;20271;-65
2024/03/01 07:28:17;;;;;;;3.97;1.30;;;21.70;35.20;;;;;;5131350;28;20315;-65
2024/03/01 07:30:44;;;;;;;3.42;1.42;;;21.70;35.30;;;;;;5132967;28;20566;-64
2024/03/01 07:33:12;;;;;;;4.53;1.33;;;21.70;35.30;;;;;;5132027;28;20285;-65
2024/03/01 07:35:39;;;;;;;3.20;1.08;;;21.70;35.20;;;;;;5132326;28;20271;-65
2024/03/01 07:38:06;;;;;;;5.05;1.20;;;21.70;35.30;;;;;;5133022;27;20208;-65
2024/03/01 07:40:34;;;;;;;3.65;1.20;;;21.70;35.20;;;;;;5136493;27;20189;-65
2024/03/01 07:43:01;;;;;;;4.15;1.58;;;21.70;35.20;;;;;;5137149;27;20603;-65
2024/03/01 07:45:28;;;;;;;5.30;1.30;;;21.70;35.20;;;;;;5135496;27;20220;-65
2024/03/01 07:47:56;;;;;;;4.82;1.52;;;21.70;35.10;;;;;;5136839;27;20219;-64
2024/03/01 07:50:24;;;;;;;3.25;1.25;;;21.70;35.10;;;;;;5136823;27;20198;-65
2024/03/01 07:52:51;;;;;;;2.95;1.08;;;21.70;35.00;;;;;;5137076;27;20212;-63
2024/03/01 07:55:18;;;;;;;2.85;1.20;;;21.70;35.00;;;;;;5135214;27;20275;-62
2024/03/01 07:57:45;;;;;;;3.60;1.20;;;21.60;35.00;;;;;;5136374;27;20659;-65
2024/03/01 08:00:12;;;;;;;4.50;1.20;;;21.70;35.00;;;;;;5136646;27;20202;-62
2024/03/01 08:02:39;;;;;;;2.80;0.95;;;21.70;35.00;;;;;;5136747;27;20335;-63
2024/03/01 08:05:09;;;;;;;5.28;1.33;;;21.70;35.10;;;;;;5134869;27;20180;-63
2024/03/01 08:07:37;;;;;;;4.03;1.30;;;21.70;35.20;;;;;;5131767;27;20220;-63
2024/03/01 08:10:05;;;;;;;3.80;1.30;;;21.80;35.30;;;;;;5122357;27;20193;-63
2024/03/01 08:12:35;;;;;;;4.70;1.40;;;21.80;35.30;;;;;;5124618;27;20216;-63
2024/03/01 08:15:08;;;;;;;2.63;1.27;;;21.80;35.30;;;;;;5136137;27;20303;-64
2024/03/01 08:17:35;;;;;;;3.03;1.10;;;21.90;35.20;;;;;;5136262;27;20295;-63
2024/03/01 08:20:10;;;;;;;3.50;1.30;;;21.90;35.20;;;;;;5135786;27;20290;-63
2024/03/01 08:22:39;;;;;;;3.53;1.48;;;22.00;35.20;;;;;;5099128;27;20233;-63
2024/03/01 08:25:10;;;;;;;3.58;1.17;;;22.00;35.20;;;;;;5117807;27;20201;-63
2024/03/01 08:27:40;;;;;;;3.17;1.10;;;22.00;35.00;;;;;;5125337;27;21079;-63
2024/03/01 08:30:42;;;;;;;4.20;1.27;;;22.00;34.80;;;;;;5133939;27;20219;-63
2024/03/01 08:33:19;;;;;;;3.58;1.20;;;22.10;34.80;;;;;;5094431;27;20223;-64
2024/03/01 08:35:58;;;;;;;2.95;1.30;;;22.10;34.80;;;;;;5133157;27;20193;-63
2024/03/01 08:39:22;;;;;;;6.75;1.40;;;22.10;34.70;;;;;;4996756;27;20595;-63
2024/03/01 08:42:03;;;;;;;3.42;1.00;;;22.10;34.70;;;;;;5112593;27;20235;-62
2024/03/01 08:44:54;;;;;;;3.22;1.33;;;22.10;34.60;;;;;;5067328;27;20201;-63
2024/03/01 08:47:30;;;;;;;6.53;1.30;;;22.20;34.60;;;;;;5129112;27;20251;-64
2024/03/01 08:50:36;;;;;;;3.30;1.25;;;22.20;34.70;;;;;;5071188;27;20215;-63
2024/03/01 08:53:27;;;;;;;4.38;1.30;;;22.20;34.60;;;;;;5127360;27;20224;-63
2024/03/01 08:55:58;;;;;;;4.30;1.27;;;22.20;34.60;;;;;;5129375;27;20232;-63
2024/03/01 08:58:27;;;;;;;4.55;1.30;;;22.20;34.60;;;;;;5115357;27;20215;-63
2024/03/01 09:00:56;;;;;;;4.97;1.33;;;22.20;34.60;;;;;;5115676;27;20210;-63
2024/03/01 09:03:29;;;;;;;4.40;1.20;;;22.30;34.60;;;;;;5129398;27;20314;-63
2024/03/01 09:05:58;;;;;;;4.57;1.48;;;22.30;34.50;;;;;;5060783;27;20204;-64
2024/03/01 09:08:31;;;;;;;4.85;1.13;;;22.30;34.50;;;;;;5129746;27;20220;-65
2024/03/01 09:11:18;;;;;;;6.72;1.88;;;22.20;34.40;;;;;;5131888;27;20641;-64
2024/03/01 09:13:49;;;;;;;5.57;1.02;;;22.30;34.50;;;;;;5129188;27;20273;-65
2024/03/01 09:16:20;;;;;;;3.25;1.25;;;22.30;34.50;;;;;;5117094;27;20220;-64
2024/03/01 09:18:49;;;;;;;4.57;1.42;;;22.30;34.70;;;;;;5121359;27;20217;-63
2024/03/01 09:21:44;;;;;;;8.68;1.40;;;22.30;34.70;;;;;;5111532;27;20280;-63
2024/03/01 09:24:14;;;;;;;4.03;1.30;;;22.30;34.90;;;;;;5066919;28;20642;-65
2024/03/01 09:26:42;;;;;;;8.57;1.40;;;22.30;35.00;;;;;;5062785;28;20290;-63
2024/03/01 09:29:27;;;;;;;4.65;1.58;;;22.30;35.30;;;;;;5035482;28;20713;-65
2024/03/01 09:31:58;;;;;;;3.97;1.40;;;22.30;35.40;;;;;;5061038;28;20594;-64
2024/03/01 09:34:30;;;;;;;3.60;1.40;;;22.30;35.50;;;;;;5065573;28;20195;-63
2024/03/01 09:36:57;;;;;;;5.22;1.60;;;22.30;35.50;;;;;;5066912;28;20692;-64
2024/03/01 09:39:24;;;;;;;2.97;1.33;;;22.30;35.30;;;;;;5066137;28;20305;-63
2024/03/01 09:42:01;;;;;;;6.47;1.52;;;22.30;35.40;;;;;;5067527;28;20203;-65
2024/03/01 09:45:00;;;;;;;4.97;1.55;;;22.30;35.40;;;;;;5064952;28;20191;-65
2024/03/01 09:47:34;;;;;;;7.25;1.55;;;22.30;35.40;;;;;;5058631;28;20218;-62
2024/03/01 09:50:21;;;;;;;6.20;1.67;;;22.20;35.30;;;;;;5064074;28;20189;-64
2024/03/01 09:53:03;;;;;;;4.32;1.67;;;22.30;35.20;;;;;;5059742;28;20445;-65
2024/03/01 09:55:37;;;;;;;7.82;1.50;;;22.30;35.20;;;;;;5067473;28;20848;-66
2024/03/01 09:58:15;;;;;;;6.25;1.75;;;22.30;35.20;;;;;;5067213;28;20229;-63
2024/03/01 10:00:53;;;;;;;3.90;1.35;;;22.30;35.30;;;;;;5075108;27;20209;-65
2024/03/01 10:03:29;;;;;;;6.35;1.60;;;22.30;35.30;;;;;;5112094;27;20232;-65
2024/03/01 10:06:12;;;;;;;3.90;1.45;;;22.30;35.20;;;;;;5109777;27;20219;-63
2024/03/01 10:08:53;;;;;;;4.60;1.63;;;22.30;35.10;;;;;;5106260;27;20923;-65
2024/03/01 10:11:27;;;;;;;4.30;1.58;;;22.30;35.00;;;;;;5108373;27;20197;-64
2024/03/01 10:14:02;;;;;;;6.57;1.67;;;22.30;35.10;;;;;;5116263;27;20223;-63
2024/03/01 10:16:50;;;;;;;5.57;1.35;;;22.30;35.00;;;;;;5112413;27;20291;-64
2024/03/01 10:19:31;;;;;;;6.25;1.50;;;22.30;35.70;;;;;;5111622;27;20284;-65
2024/03/01 10:22:08;;;;;;;7.85;1.92;;;22.30;35.00;;;;;;5111578;28;20280;-64
2024/03/01 10:24:51;;;;;;;6.70;1.70;;;22.30;35.70;;;;;;5109893;27;20274;-65
2024/03/01 10:27:24;;;;;;;3.67;1.70;;;22.30;35.70;;;;;;5111047;27;20332;-63
2024/03/01 10:30:07;;;;;;;4.95;1.50;;;22.30;35.00;;;;;;5111495;27;20194;-64
2024/03/01 10:32:46;;;;;;;5.07;1.52;;;22.30;35.00;;;;;;5110548;27;20249;-64
2024/03/01 10:35:19;;;;;;;6.40;1.48;;;22.30;35.00;;;;;;5100300;28;20279;-63
2024/03/01 10:37:57;;;;;;;4.55;1.23;;;22.30;34.90;;;;;;5109107;27;20227;-64
2024/03/01 10:40:25;;;;;;;4.05;1.48;;;22.30;34.90;;;;;;5110962;27;20599;-63
2024/03/01 10:43:01;;;;;;;5.63;1.40;;;22.40;34.90;;;;;;5109797;27;20235;-65
2024/03/01 10:45:36;;;;;;;6.40;1.50;;;22.30;34.90;;;;;;5108165;28;20677;-64
2024/03/01 10:48:04;;;;;;;6.50;1.52;;;22.30;34.80;;;;;;5112288;27;20224;-63
2024/03/01 10:50:35;;;;;;;5.60;1.70;;;22.40;35.50;;;;;;5108865;27;20189;-63
2024/03/01 10:53:05;;;;;;;6.93;1.35;;;22.40;34.80;;;;;;5110800;27;20941;-61
2024/03/01 10:55:37;;;;;;;5.95;1.40;;;22.40;34.70;;;;;;5104823;27;20206;-62
2024/03/01 10:58:08;;;;;;;3.83;1.27;;;22.40;34.70;;;;;;5115629;27;20237;-64
2024/03/01 11:00:43;;;;;;;5.45;1.77;;;22.40;34.80;;;;;;5118231;27;20195;-63
2024/03/01 11:03:19;;;;;;;6.22;1.73;;;22.40;34.70;;;;;;5122928;27;20246;-61
2024/03/01 11:06:01;;;;;;;4.32;1.70;;;22.40;34.60;;;;;;5109403;28;20187;-66
2024/03/01 11:08:39;;;;;;;4.35;1.45;;;22.40;34.70;;;;;;5109772;27;20217;-65
2024/03/01 11:11:12;;;;;;;6.63;1.60;;;22.40;34.60;;;;;;5095928;27;20722;-64
2024/03/01 11:13:43;;;;;;;7.30;1.85;;;22.30;34.60;;;;;;5104886;27;20314;-66
2024/03/01 11:16:16;;;;;;;4.68;1.40;;;22.40;35.40;;;;;;5132754;27;20192;-65
2024/03/01 11:18:54;;;;;;;9.45;1.70;;;22.30;34.80;;;;;;5130980;27;20766;-66
2024/03/01 11:21:25;;;;;;;7.03;1.55;;;22.30;34.80;;;;;;5118658;28;20321;-67
2024/03/01 11:23:56;;;;;;;3.92;1.60;;;22.30;34.90;;;;;;5132094;28;20262;-66
2024/03/01 11:26:30;;;;;;;8.38;1.88;;;22.20;34.80;;;;;;5130114;27;20287;-66
2024/03/01 11:28:58;;;;;;;6.00;1.58;;;22.20;35.40;;;;;;5133043;28;20685;-65
2024/03/01 11:31:29;;;;;;;4.45;1.50;;;22.30;34.70;;;;;;5132320;28;20264;-66
2024/03/01 11:34:00;;;;;;;7.22;1.98;;;22.30;34.60;;;;;;5130612;28;20207;-66
2024/03/01 11:36:41;;;;;;;12.52;2.33;;;22.20;34.40;;;;;;5132681;28;20188;-67
2024/03/01 11:39:20;;;;;;;5.97;1.70;;;22.20;34.30;;;;;;5132404;28;20223;-67
2024/03/01 11:41:56;;;;;;;5.50;1.58;;;22.20;34.30;;;;;;5132642;28;20278;-67
2024/03/01 11:44:33;;;;;;;4.22;1.00;;;22.20;34.30;;;;;;5132642;28;20324;-67
2024/03/01 11:47:16;;;;;;;6.13;1.90;;;22.20;34.20;;;;;;5132149;28;20195;-66
2024/03/01 11:50:03;;;;;;;5.78;1.58;;;22.10;34.10;;;;;;5132374;28;20616;-64
2024/03/01 11:52:47;;;;;;;7.00;1.42;;;22.20;34.10;;;;;;5130743;28;20590;-66
2024/03/01 11:55:21;;;;;;;4.68;1.35;;;22.10;34.00;;;;;;5132446;28;20211;-67
2024/03/01 11:57:57;;;;;;;8.27;1.38;;;22.10;34.10;;;;;;5130467;28;20299;-67
2024/03/01 12:00:44;;;;;;;4.00;1.25;;;22.10;34.10;;;;;;5132392;28;20184;-67
2024/03/01 12:03:55;;;;;;;4.80;1.65;;;22.10;34.00;;;;;;5130394;28;20325;-66
2024/03/01 12:06:35;;;;;;;3.88;1.10;;;22.10;33.90;;;;;;5132755;28;20204;-66
2024/03/01 12:09:13;;;;;;;5.75;1.33;;;22.00;33.90;;;;;;5132103;28;20709;-67
2024/03/01 12:11:53;;;;;;;4.55;1.48;;;22.00;33.90;;;;;;5130738;28;20180;-66
2024/03/01 12:14:28;;;;;;;3.15;1.45;;;22.10;33.90;;;;;;5131998;28;20228;-66
2024/03/01 12:17:03;;;;;;;4.38;1.40;;;22.00;33.80;;;;;;5131915;28;20280;-66
2024/03/01 12:19:40;;;;;;;3.88;1.30;;;22.00;33.80;;;;;;5132303;28;20215;-67
2024/03/01 12:22:22;;;;;;;11.05;1.45;;;22.00;33.80;;;;;;5132258;28;20279;-66
2024/03/01 12:24:50;;;;;;;2.85;1.20;;;22.00;33.70;;;;;;5132452;27;20219;-67
2024/03/01 12:27:29;;;;;;;7.50;1.33;;;22.00;33.60;;;;;;5134363;27;20188;-65
2024/03/01 12:30:10;;;;;;;4.85;1.33;;;22.00;33.60;;;;;;5136303;27;20210;-67
2024/03/01 12:32:43;;;;;;;5.15;1.35;;;22.00;33.60;;;;;;5135983;27;20203;-66
2024/03/01 12:35:25;;;;;;;5.65;1.42;;;22.00;33.60;;;;;;5135946;27;20191;-66
2024/03/01 12:38:10;;;;;;;4.93;1.45;;;22.00;33.50;;;;;;5134201;27;20208;-66
2024/03/01 12:40:43;;;;;;;5.10;1.50;;;22.00;33.40;;;;;;5135818;27;20235;-66
2024/03/01 12:43:26;;;;;;;4.40;1.40;;;22.00;33.40;;;;;;5134555;27;20302;-66
2024/03/01 12:46:14;;;;;;;4.07;1.48;;;22.00;33.30;;;;;;5135158;27;20199;-64
2024/03/01 12:48:55;;;;;;;4.32;1.27;;;22.00;33.30;;;;;;5130424;27;20303;-64
2024/03/01 12:51:28;;;;;;;6.32;1.52;;;22.00;33.30;;;;;;5128684;27;20287;-65
2024/03/01 12:54:01;;;;;;;5.65;1.52;;;22.10;33.30;;;;;;5117434;27;20220;-62
2024/03/01 12:56:35;;;;;;;5.30;1.52;;;22.10;33.30;;;;;;5131401;27;20200;-65
2024/03/01 12:59:36;;;;;;;5.70;1.20;;;22.10;33.60;;;;;;5125951;27;20324;-65
2024/03/01 13:02:36;;;;;;;7.28;1.60;;;22.10;33.90;;;;;;5123360;27;20192;-63
2024/03/01 13:05:17;;;;;;;7.00;1.55;;;22.10;33.80;;;;;;5122635;27;20235;-65
2024/03/01 13:07:48;;;;;;;8.40;2.70;;;22.00;33.90;;;;;;5120419;27;20278;-66
2024/03/01 13:10:17;;;;;;;7.97;3.20;;;22.00;34.10;;;;;;5117768;27;20207;-66